KDYS/DYS METAR and TAF weather

Enter ICAO airport designator
Station Type Date Time Source
KDYS METAR 2019/08/25 01:56 UTC NOAA

KDYS 250156Z AUTO 13009KT 10SM CLR 29/18 A2992 RMK AO2 SLP086 T02880182 PNO FZRANO $


Station Type Date Time Source
KDYS Decoded METAR 2019/08/25 01:56 UTC NOAA

Station name not available
Aug 24, 2019 - 09:56 PM EDT / 2019.08.25 0156 UTC
Wind: from the SE (130 degrees) at 10 MPH (9 KT):0
Visibility: 10 mile(s):0
Sky conditions: clear
Temperature: 83.8 F (28.8 C)
Dew Point: 64.8 F (18.2 C)
Relative Humidity: 52%
Pressure (altimeter): 29.92 in. Hg (1013 hPa)
ob: KDYS 250156Z AUTO 13009KT 10SM CLR 29/18 A2992 RMK AO2 SLP086 T02880182 PNO FZRANO
cycle: 2

Station Type Date Time Source
KDYS TAF 2019/08/24 22:30 UTC NOAA

TAF KDYS 242216Z 2422/2604 13009KT 9999 VCTS SCT050CB BKN200 QNH2981INS
TEMPO 2422/2424 VRB12G20KT 9000 -TSRA BKN050CB
BECMG 2423/2424 VRB06KT 9999 NSW SCT050 QNH2982INS
BECMG 2514/2515 17012G18KT 9999 SCT050 QNH2980INS TX38/2522Z TN23/2512Z

Example: see airport list